Time;durP1;ratioP1;P1;durP2;ratioP2;P2;SDS_P1;SDS_P2;PMS_P1;PMS_P2;Temp;Humidity;BMP_temperature;BMP_pressure;BME280_temperature;BME280_humidity;BME280_pressure;Samples;Min_cycle;Max_cycle;Signal;HPM_P1;HPM_P2
2022/04/10 00:00:19;;;;;;;12.02;2.15;;;15.00;99.90;;;;;;4898140;29;20494;-88
2022/04/10 00:02:49;;;;;;;3.63;1.70;;;14.90;99.90;;;;;;4898168;29;20052;-88
2022/04/10 00:05:16;;;;;;;11.23;1.13;;;14.90;99.90;;;;;;4898002;29;20040;-88
2022/04/10 00:07:42;;;;;;;1.88;1.30;;;14.90;99.90;;;;;;4897950;29;20079;-88
2022/04/10 00:10:09;;;;;;;5.57;1.80;;;14.90;99.90;;;;;;4882204;29;20089;-89
2022/04/10 00:12:36;;;;;;;9.57;2.28;;;15.00;99.90;;;;;;4897611;29;20040;-87
2022/04/10 00:15:05;;;;;;;8.68;1.67;;;15.00;99.90;;;;;;4898304;29;20069;-88
2022/04/10 00:17:35;;;;;;;18.80;1.48;;;15.00;99.90;;;;;;4898021;29;20120;-89
2022/04/10 00:20:02;;;;;;;2.90;1.13;;;15.00;99.90;;;;;;4882176;29;20028;-88
2022/04/10 00:22:28;;;;;;;1.65;1.20;;;15.00;99.90;;;;;;4897735;29;20478;-87
2022/04/10 00:24:55;;;;;;;3.50;1.73;;;15.00;99.90;;;;;;4897702;29;20123;-88
2022/04/10 00:27:22;;;;;;;4.68;2.28;;;15.00;99.90;;;;;;4882153;29;20040;-88
2022/04/10 00:29:49;;;;;;;8.77;0.98;;;15.00;99.90;;;;;;4897640;29;20537;-88
2022/04/10 00:32:16;;;;;;;2.67;1.10;;;15.10;99.90;;;;;;4882044;29;20033;-87
2022/04/10 00:34:43;;;;;;;6.63;1.52;;;15.10;99.90;;;;;;4898034;29;20041;-88
2022/04/10 00:37:09;;;;;;;10.23;1.73;;;15.10;99.90;;;;;;4897626;29;20084;-88
2022/04/10 00:39:36;;;;;;;6.82;2.15;;;15.10;99.90;;;;;;4897628;29;20123;-87
2022/04/10 00:42:06;;;;;;;3.72;1.15;;;15.10;99.90;;;;;;4897694;29;20025;-88
2022/04/10 00:44:34;;;;;;;7.35;1.80;;;15.10;99.90;;;;;;4897578;29;20558;-87
2022/04/10 00:47:03;;;;;;;11.65;1.10;;;15.10;99.90;;;;;;4897561;29;20021;-88
2022/04/10 00:49:30;;;;;;;6.38;1.60;;;15.10;99.90;;;;;;4897540;29;20039;-88
2022/04/10 00:52:02;;;;;;;12.63;1.50;;;15.10;99.90;;;;;;4897787;29;20359;-89
2022/04/10 00:54:30;;;;;;;5.72;1.70;;;15.10;99.90;;;;;;4897446;29;20044;-88
2022/04/10 00:57:00;;;;;;;2.95;1.02;;;15.10;99.90;;;;;;4884456;29;20032;-88
2022/04/10 00:59:33;;;;;;;11.63;1.58;;;15.20;99.90;;;;;;4901111;29;20115;-88
2022/04/10 01:02:00;;;;;;;8.32;2.15;;;15.20;99.90;;;;;;4885499;29;20029;-88
2022/04/10 01:04:40;;;;;;;3.60;1.23;;;15.20;99.90;;;;;;4901030;29;20039;-89
2022/04/10 01:07:11;;;;;;;4.05;1.25;;;15.20;99.90;;;;;;4885236;29;20482;-87
2022/04/10 01:09:42;;;;;;;4.43;1.13;;;15.20;99.90;;;;;;4900990;29;20123;-88
2022/04/10 01:12:11;;;;;;;2.78;1.45;;;15.10;99.90;;;;;;4900853;29;20055;-88
2022/04/10 01:14:42;;;;;;;6.50;1.10;;;15.10;99.90;;;;;;4885284;29;20088;-89
2022/04/10 01:17:14;;;;;;;1.80;1.30;;;15.10;99.90;;;;;;4900642;29;20028;-88
2022/04/10 01:19:43;;;;;;;9.73;2.05;;;15.10;99.90;;;;;;4900926;29;20032;-88
2022/04/10 01:22:38;;;;;;;6.28;1.70;;;15.10;99.90;;;;;;4900963;29;20032;-88
2022/04/10 01:25:09;;;;;;;2.22;1.10;;;15.10;99.90;;;;;;4885218;29;20427;-89
2022/04/10 01:27:41;;;;;;;4.53;1.55;;;15.10;99.90;;;;;;4900897;29;20057;-88
2022/04/10 01:30:11;;;;;;;7.20;1.73;;;15.00;99.90;;;;;;4885022;29;20056;-88
2022/04/10 01:32:46;;;;;;;8.20;1.67;;;15.00;99.90;;;;;;4900642;29;20032;-88
2022/04/10 01:35:25;;;;;;;3.88;1.88;;;15.00;99.90;;;;;;4900584;29;20510;-89
2022/04/10 01:37:58;;;;;;;10.82;2.65;;;14.90;99.90;;;;;;4885270;29;20033;-88
2022/04/10 01:40:31;;;;;;;4.72;1.55;;;14.90;99.90;;;;;;4900560;29;20084;-88
2022/04/10 01:42:58;;;;;;;7.60;1.08;;;14.70;99.90;;;;;;4900397;29;20045;-88
2022/04/10 01:45:25;;;;;;;3.10;1.75;;;14.80;99.90;;;;;;4900348;29;20486;-88
2022/04/10 01:47:55;;;;;;;8.48;1.77;;;14.80;99.90;;;;;;4900214;29;20498;-88
2022/04/10 01:50:23;;;;;;;14.20;2.75;;;14.80;99.90;;;;;;4884813;29;20048;-88
2022/04/10 01:52:49;;;;;;;3.88;1.00;;;14.80;99.90;;;;;;4900025;29;20402;-89
2022/04/10 01:55:16;;;;;;;5.88;1.92;;;14.80;99.90;;;;;;4884589;29;20088;-88
2022/04/10 01:57:43;;;;;;;5.63;1.60;;;14.80;99.90;;;;;;4900106;29;20029;-88
2022/04/10 02:00:11;;;;;;;4.25;1.35;;;14.80;99.90;;;;;;4900200;29;20088;-89
2022/04/10 02:02:42;;;;;;;7.07;1.50;;;14.80;99.90;;;;;;4885064;29;20028;-88
2022/04/10 02:05:09;;;;;;;6.75;1.52;;;14.60;99.90;;;;;;4900150;29;20040;-87
2022/04/10 02:07:39;;;;;;;4.43;1.77;;;14.40;99.90;;;;;;4900101;29;20120;-88
2022/04/10 02:10:06;;;;;;;4.53;2.05;;;14.50;99.90;;;;;;4899905;29;20070;-88
2022/04/10 02:12:33;;;;;;;8.18;2.22;;;14.60;99.90;;;;;;4899751;29;20033;-88
2022/04/10 02:15:00;;;;;;;4.55;1.67;;;14.50;99.90;;;;;;4899884;29;20125;-88
2022/04/10 02:17:27;;;;;;;7.60;1.70;;;14.60;99.90;;;;;;4899600;29;20032;-87
2022/04/10 02:19:53;;;;;;;7.60;1.75;;;14.60;99.90;;;;;;4899935;29;20039;-88
2022/04/10 02:22:20;;;;;;;2.90;1.40;;;14.60;99.90;;;;;;4899867;29;20071;-88
2022/04/10 02:24:47;;;;;;;4.88;1.27;;;14.60;99.90;;;;;;4899611;29;20035;-88
2022/04/10 02:27:14;;;;;;;5.22;1.63;;;14.50;99.90;;;;;;4899522;29;20032;-87
2022/04/10 02:29:44;;;;;;;4.75;1.33;;;14.60;99.90;;;;;;4899362;29;20051;-88
2022/04/10 02:32:11;;;;;;;5.65;1.60;;;14.60;99.90;;;;;;4883901;29;20032;-88
2022/04/10 02:34:38;;;;;;;4.15;1.27;;;14.60;99.90;;;;;;4899312;29;20124;-88
2022/04/10 02:37:06;;;;;;;2.08;1.40;;;14.50;99.90;;;;;;4899418;29;20029;-88
2022/04/10 02:39:33;;;;;;;10.20;2.22;;;14.50;99.90;;;;;;4883961;29;20032;-89
2022/04/10 02:42:00;;;;;;;3.65;1.42;;;14.50;99.90;;;;;;4883936;29;20111;-87
2022/04/10 02:44:27;;;;;;;7.72;2.45;;;14.50;99.90;;;;;;4898880;29;20037;-88
2022/04/10 02:46:53;;;;;;;4.75;1.30;;;14.40;99.90;;;;;;4899426;29;20123;-87
2022/04/10 02:49:20;;;;;;;7.28;1.70;;;14.40;99.90;;;;;;4899120;29;20024;-87
2022/04/10 02:51:49;;;;;;;3.47;1.17;;;14.40;99.90;;;;;;4899262;29;20068;-87
2022/04/10 02:54:17;;;;;;;4.70;1.10;;;14.40;99.90;;;;;;4899141;29;20041;-87
2022/04/10 02:56:44;;;;;;;5.05;1.42;;;14.30;99.90;;;;;;4899043;29;20064;-88
2022/04/10 02:59:10;;;;;;;9.60;1.77;;;14.30;99.90;;;;;;4899046;29;20032;-87
2022/04/10 03:01:37;;;;;;;4.63;1.30;;;14.30;99.90;;;;;;4898775;29;20040;-87
2022/04/10 03:04:06;;;;;;;18.92;2.22;;;14.30;99.90;;;;;;4899062;29;20102;-88
2022/04/10 03:06:33;;;;;;;11.65;1.70;;;14.20;99.90;;;;;;4898489;29;20032;-88
2022/04/10 03:09:00;;;;;;;6.75;1.85;;;14.20;99.90;;;;;;4898637;29;20033;-87
2022/04/10 03:11:27;;;;;;;13.27;2.58;;;14.10;99.90;;;;;;4898984;29;20088;-88
2022/04/10 03:13:55;;;;;;;5.93;1.80;;;14.10;99.90;;;;;;4898600;29;20111;-88
2022/04/10 03:16:22;;;;;;;10.98;2.08;;;14.10;99.90;;;;;;4898473;29;20035;-88
2022/04/10 03:18:51;;;;;;;3.60;1.80;;;14.10;99.90;;;;;;4898315;29;20047;-87
2022/04/10 03:21:18;;;;;;;6.95;1.48;;;14.00;99.90;;;;;;4898458;29;20048;-88
2022/04/10 03:23:46;;;;;;;9.43;1.67;;;14.00;99.90;;;;;;4898628;29;20051;-88
2022/04/10 03:26:12;;;;;;;7.72;2.38;;;14.00;99.90;;;;;;4898300;29;20036;-87
2022/04/10 03:28:39;;;;;;;8.27;2.35;;;13.80;99.90;;;;;;4898649;29;20029;-87
2022/04/10 03:31:09;;;;;;;8.00;1.75;;;13.80;99.90;;;;;;4898728;29;20047;-88
2022/04/10 03:33:39;;;;;;;7.00;2.00;;;13.80;99.90;;;;;;4882776;29;20516;-87
2022/04/10 03:36:06;;;;;;;5.80;1.58;;;13.80;99.90;;;;;;4898288;29;20031;-88
2022/04/10 03:38:32;;;;;;;16.67;2.63;;;13.80;99.90;;;;;;4898281;29;20048;-87
2022/04/10 03:40:59;;;;;;;11.52;1.63;;;13.70;99.90;;;;;;4898302;29;20029;-87
2022/04/10 03:43:26;;;;;;;3.75;1.55;;;13.70;99.90;;;;;;4898298;29;20112;-88
2022/04/10 03:45:52;;;;;;;8.48;2.33;;;13.70;99.90;;;;;;4898296;29;20025;-87
2022/04/10 03:48:20;;;;;;;4.82;2.35;;;13.70;99.90;;;;;;4898301;29;20032;-87
2022/04/10 03:50:47;;;;;;;15.75;3.33;;;13.70;99.90;;;;;;4898023;29;20032;-87
2022/04/10 03:53:17;;;;;;;5.78;1.83;;;13.70;99.90;;;;;;4898010;29;20513;-88
2022/04/10 03:55:45;;;;;;;11.18;3.08;;;13.70;99.90;;;;;;4897967;29;20116;-91
2022/04/10 03:58:20;;;;;;;7.90;2.92;;;13.70;99.90;;;;;;4883422;29;20029;-90
2022/04/10 04:00:47;;;;;;;8.57;2.13;;;13.70;99.90;;;;;;4898103;29;20077;-90
2022/04/10 04:03:15;;;;;;;6.88;2.10;;;13.60;99.90;;;;;;4882830;29;20024;-92
2022/04/10 04:05:43;;;;;;;6.22;2.28;;;13.60;99.90;;;;;;4897955;29;20059;-87
2022/04/10 04:08:13;;;;;;;4.80;1.77;;;13.60;99.90;;;;;;4897947;29;20372;-91
2022/04/10 04:10:40;;;;;;;17.13;2.90;;;13.60;99.90;;;;;;4898584;29;20037;-93
2022/04/10 04:13:07;;;;;;;13.50;2.30;;;13.50;99.90;;;;;;4898048;29;20040;-90
2022/04/10 04:15:37;;;;;;;12.90;2.70;;;13.50;99.90;;;;;;4897876;29;20386;-93
2022/04/10 04:18:04;;;;;;;15.45;2.55;;;13.50;99.90;;;;;;4897952;29;20047;-92
2022/04/10 04:20:31;;;;;;;7.72;1.95;;;13.50;99.90;;;;;;4897873;29;20031;-91
2022/04/10 04:23:00;;;;;;;6.32;2.13;;;13.50;99.90;;;;;;4898063;29;20040;-93
2022/04/10 04:25:27;;;;;;;8.10;2.35;;;13.50;99.90;;;;;;4897845;29;20048;-91
2022/04/10 04:27:56;;;;;;;8.32;1.85;;;13.50;99.90;;;;;;4897755;29;20051;-93
2022/04/10 04:30:26;;;;;;;7.47;3.00;;;13.50;99.90;;;;;;4897826;29;20053;-93
2022/04/10 04:32:57;;;;;;;;;;;13.50;99.90;;;;;;4901935;29;20037;-92
2022/04/10 04:35:27;;;;;;;10.93;2.92;;;13.50;99.90;;;;;;4901703;29;20006;-90
2022/04/10 04:38:06;;;;;;;7.40;1.83;;;13.50;99.90;;;;;;4886262;29;20033;-90
2022/04/10 04:40:33;;;;;;;5.55;1.83;;;13.50;99.90;;;;;;4901513;29;20029;-92
2022/04/10 04:42:59;;;;;;;10.30;3.00;;;13.50;99.90;;;;;;4886018;29;20024;-92
2022/04/10 04:45:32;;;;;;;5.97;2.97;;;13.40;99.90;;;;;;4901402;29;20032;-92
2022/04/10 04:48:11;;;;;;;12.82;3.17;;;13.50;99.90;;;;;;4901131;29;20036;-93
2022/04/10 04:50:42;;;;;;;7.68;2.50;;;13.40;99.90;;;;;;4885922;29;20036;-91
2022/04/10 04:53:09;;;;;;;13.95;2.65;;;13.40;99.90;;;;;;4901412;29;20040;-91
2022/04/10 04:55:37;;;;;;;6.88;2.13;;;13.50;99.90;;;;;;4901380;29;20120;-93
2022/04/10 04:58:07;;;;;;;7.25;1.80;;;13.50;99.90;;;;;;4901116;29;20036;-92
2022/04/10 05:00:37;;;;;;;12.88;2.95;;;13.50;99.90;;;;;;4901182;29;20037;-91
2022/04/10 05:03:04;;;;;;;9.70;2.88;;;13.50;99.90;;;;;;4901562;29;20068;-92
2022/04/10 05:05:31;;;;;;;6.35;2.30;;;13.50;99.90;;;;;;4901378;29;20125;-91
2022/04/10 05:08:06;;;;;;;9.68;2.53;;;13.60;99.90;;;;;;4900930;29;20032;-94
2022/04/10 05:10:33;;;;;;;5.47;1.55;;;13.70;99.90;;;;;;4885528;29;20025;-91
2022/04/10 05:13:05;;;;;;;20.25;4.47;;;13.80;99.90;;;;;;4901137;29;20036;-92
2022/04/10 05:15:32;;;;;;;15.43;3.65;;;13.90;99.90;;;;;;4902536;29;20096;-92
2022/04/10 05:18:01;;;;;;;1.80;1.17;;;14.00;99.90;;;;;;4908120;29;20071;-91
2022/04/10 05:20:28;;;;;;;9.90;1.25;;;14.10;99.90;;;;;;4901417;29;20035;-91
2022/04/10 05:23:09;;;;;;;3.10;0.90;;;14.30;99.90;;;;;;4887315;29;20024;-91
2022/04/10 05:25:39;;;;;;;8.70;1.67;;;14.40;99.90;;;;;;4900659;29;20043;-91
2022/04/10 05:28:17;;;;;;;8.10;1.45;;;14.50;99.90;;;;;;4900672;29;20111;-91
2022/04/10 05:30:45;;;;;;;19.67;3.35;;;14.70;99.90;;;;;;4885062;29;20048;-91
2022/04/10 05:33:17;;;;;;;13.88;2.00;;;14.80;99.90;;;;;;4900666;29;20075;-91
2022/04/10 05:35:47;;;;;;;4.50;1.33;;;14.80;99.90;;;;;;4900783;29;20120;-91
2022/04/10 05:38:14;;;;;;;7.47;1.70;;;14.90;99.90;;;;;;4886098;29;20040;-92
2022/04/10 05:40:58;;;;;;;14.60;1.50;;;15.00;99.90;;;;;;4900889;29;20056;-91
2022/04/10 05:43:34;;;;;;;12.23;1.63;;;15.10;99.90;;;;;;4899960;29;20509;-86
2022/04/10 05:46:03;;;;;;;9.10;2.50;;;15.20;99.90;;;;;;4885119;29;20088;-87
2022/04/10 05:48:35;;;;;;;12.88;2.20;;;15.30;99.90;;;;;;4885068;29;20547;-85
2022/04/10 05:51:07;;;;;;;8.40;1.30;;;15.30;99.90;;;;;;4899746;29;20128;-85
2022/04/10 05:53:36;;;;;;;4.05;1.38;;;15.20;99.90;;;;;;4900075;29;20052;-86
2022/04/10 05:56:04;;;;;;;5.05;1.27;;;15.30;99.90;;;;;;4900257;29;20029;-87
2022/04/10 05:58:36;;;;;;;6.07;1.55;;;15.50;99.90;;;;;;4900276;29;20119;-86
2022/04/10 06:01:03;;;;;;;4.15;1.40;;;15.50;99.90;;;;;;4900039;29;20033;-88
2022/04/10 06:03:30;;;;;;;5.55;1.80;;;15.70;99.90;;;;;;4900079;29;20112;-87
2022/04/10 06:06:00;;;;;;;5.25;1.10;;;15.80;99.90;;;;;;4899874;29;20035;-89
2022/04/10 06:08:41;;;;;;;7.45;2.13;;;15.90;99.90;;;;;;4899776;29;20043;-86
2022/04/10 06:11:08;;;;;;;6.50;1.55;;;16.00;99.90;;;;;;4899845;29;20056;-87
2022/04/10 06:13:37;;;;;;;11.02;1.45;;;16.40;99.90;;;;;;4899867;29;20383;-89
2022/04/10 06:16:18;;;;;;;8.65;1.48;;;16.70;99.90;;;;;;4899893;29;20398;-87
2022/04/10 06:18:56;;;;;;;10.88;1.20;;;16.50;99.90;;;;;;4900243;29;20029;-89
2022/04/10 06:21:24;;;;;;;6.85;1.55;;;15.60;99.90;;;;;;4890237;29;20029;-88
2022/04/10 06:23:51;;;;;;;14.23;2.20;;;15.00;99.90;;;;;;4908154;29;20044;-92
2022/04/10 06:26:33;;;;;;;6.25;1.10;;;14.80;99.90;;;;;;4908980;29;20031;-90
2022/04/10 06:29:00;;;;;;;7.65;0.88;;;14.80;99.90;;;;;;4874478;29;20033;-92
2022/04/10 06:31:40;;;;;;;6.50;1.33;;;14.90;99.90;;;;;;4861313;29;20126;-93
2022/04/10 06:34:07;;;;;;;1.58;0.85;;;15.00;99.90;;;;;;4874907;29;20041;-92
2022/04/10 06:36:41;;;;;;;8.18;1.52;;;15.10;99.90;;;;;;4859643;29;20029;-89
2022/04/10 06:39:09;;;;;;;9.60;1.63;;;15.30;99.90;;;;;;4870748;29;20081;-85
2022/04/10 06:41:43;;;;;;;2.92;1.20;;;15.40;99.90;;;;;;4871994;29;20089;-86
2022/04/10 06:44:19;;;;;;;4.25;1.00;;;15.60;99.90;;;;;;4872751;29;20060;-87
2022/04/10 06:46:54;;;;;;;4.82;1.48;;;15.90;99.90;;;;;;4850316;29;20057;-86
2022/04/10 06:49:29;;;;;;;6.45;1.10;;;15.70;99.90;;;;;;4850291;29;20061;-86
2022/04/10 06:51:59;;;;;;;4.22;1.48;;;16.10;99.90;;;;;;4849676;29;20427;-85
2022/04/10 06:54:32;;;;;;;1.70;1.10;;;16.20;99.90;;;;;;4849288;29;20041;-85
2022/04/10 06:56:59;;;;;;;0.68;0.65;;;16.40;99.90;;;;;;4864447;29;20035;-85
2022/04/10 06:59:30;;;;;;;3.30;0.73;;;16.50;99.90;;;;;;4849519;29;20467;-85
2022/04/10 07:02:01;;;;;;;7.65;1.42;;;16.10;99.90;;;;;;4849349;29;20120;-86
2022/04/10 07:04:31;;;;;;;5.72;1.15;;;16.70;99.90;;;;;;4849668;29;20029;-87
2022/04/10 07:07:05;;;;;;;5.47;1.25;;;16.50;99.90;;;;;;4849720;29;20441;-87
2022/04/10 07:09:31;;;;;;;6.80;1.65;;;16.70;99.90;;;;;;4849598;29;20064;-87
2022/04/10 07:11:59;;;;;;;11.75;1.13;;;16.60;99.90;;;;;;4849555;29;20124;-92
2022/04/10 07:14:35;;;;;;;4.20;1.05;;;16.80;99.90;;;;;;4851260;29;20041;-89
2022/04/10 07:17:05;;;;;;;4.47;0.70;;;16.90;99.90;;;;;;4851415;29;20120;-90
2022/04/10 07:19:31;;;;;;;5.35;1.17;;;17.40;99.90;;;;;;4866055;29;20060;-87
2022/04/10 07:24:46;;;;;;;3.63;1.08;;;17.50;99.90;;;;;;4864414;29;20048;-86
2022/04/10 07:27:13;;;;;;;5.22;1.15;;;17.40;99.90;;;;;;4864283;29;20049;-90
2022/04/10 07:30:01;;;;;;;5.25;0.90;;;17.50;99.90;;;;;;4887014;29;20051;-87
2022/04/10 07:32:37;;;;;;;3.78;0.90;;;18.30;99.90;;;;;;4901678;29;20482;-87
2022/04/10 07:35:12;;;;;;;6.95;0.80;;;18.20;99.90;;;;;;4898393;29;20036;-87
2022/04/10 07:38:11;;;;;;;3.13;0.60;;;18.70;99.90;;;;;;4860552;29;20034;-86
2022/04/10 07:40:40;;;;;;;6.35;0.88;;;18.90;99.90;;;;;;4830039;29;20049;-87
2022/04/10 07:43:11;;;;;;;4.78;1.38;;;18.60;99.90;;;;;;4831116;29;20060;-86
2022/04/10 07:48:31;;;;;;;4.53;1.30;;;18.30;99.90;;;;;;4860453;29;20504;-86
2022/04/10 07:51:00;;;;;;;5.32;1.48;;;18.40;99.90;;;;;;4829821;29;20030;-87
2022/04/10 07:53:44;;;;;;;2.28;0.88;;;18.40;99.90;;;;;;4831463;29;20501;-87
2022/04/10 07:56:11;;;;;;;3.60;0.95;;;18.90;99.90;;;;;;4829749;29;20026;-87
2022/04/10 07:58:37;;;;;;;3.83;0.88;;;19.40;99.90;;;;;;4860169;29;20448;-87
2022/04/10 08:01:17;;;;;;;7.30;1.95;;;19.90;99.90;;;;;;4831006;29;20472;-87
2022/04/10 08:03:51;;;;;;;4.78;0.75;;;19.80;99.90;;;;;;4829957;29;20444;-87
2022/04/10 08:06:51;;;;;;;5.35;1.70;;;18.60;99.90;;;;;;4819014;29;20114;-87
2022/04/10 08:09:18;;;;;;;9.35;1.67;;;18.90;99.90;;;;;;4829608;29;20432;-86
2022/04/10 08:11:44;;;;;;;12.73;2.15;;;18.60;99.90;;;;;;4829414;29;20068;-86
2022/04/10 08:14:11;;;;;;;6.88;1.13;;;18.30;99.90;;;;;;4867510;29;20056;-86
2022/04/10 08:16:37;;;;;;;1.95;0.80;;;18.40;99.90;;;;;;4885234;29;20059;-86
2022/04/10 08:19:07;;;;;;;5.90;2.13;;;18.10;99.90;;;;;;4897910;29;20037;-87
2022/04/10 08:21:34;;;;;;;5.90;1.30;;;18.00;99.90;;;;;;4900419;29;20029;-87
2022/04/10 08:24:01;;;;;;;6.38;1.55;;;18.30;99.90;;;;;;4882159;29;20028;-86
2022/04/10 08:26:32;;;;;;;9.93;2.10;;;18.40;99.90;;;;;;4899201;29;20495;-87
2022/04/10 08:28:59;;;;;;;6.15;1.33;;;18.20;99.90;;;;;;4895235;29;20036;-87
2022/04/10 08:31:29;;;;;;;4.45;1.30;;;18.00;99.90;;;;;;4863522;29;20037;-87
2022/04/10 08:33:56;;;;;;;1.42;0.80;;;17.90;99.90;;;;;;4863575;29;20104;-86
2022/04/10 08:36:22;;;;;;;4.18;1.13;;;17.90;99.90;;;;;;4863613;29;20108;-86
2022/04/10 08:38:49;;;;;;;2.40;0.77;;;18.40;99.90;;;;;;4863686;29;20037;-87
2022/04/10 08:41:20;;;;;;;5.47;0.63;;;18.60;99.90;;;;;;4863544;29;20060;-87
2022/04/10 08:43:49;;;;;;;4.28;1.33;;;18.90;99.90;;;;;;4878976;29;20037;-86
2022/04/10 08:46:19;;;;;;;5.07;0.73;;;19.30;99.90;;;;;;4848268;29;20212;-87
2022/04/10 08:48:49;;;;;;;1.85;0.60;;;19.80;99.90;;;;;;4863463;29;20037;-87
2022/04/10 08:51:16;;;;;;;3.78;0.63;;;19.80;99.90;;;;;;4863439;29;20120;-87
2022/04/10 08:53:44;;;;;;;1.65;0.30;;;19.50;99.90;;;;;;4848031;29;20041;-86
2022/04/10 08:56:11;;;;;;;0.55;0.30;;;19.10;99.90;;;;;;4863546;29;20391;-87
2022/04/10 08:58:37;;;;;;;1.48;0.20;;;18.60;99.90;;;;;;4866250;29;20081;-87
2022/04/10 09:01:04;;;;;;;1.85;0.55;;;18.30;99.90;;;;;;4866490;29;20035;-87
2022/04/10 09:03:31;;;;;;;0.30;0.10;;;17.90;99.90;;;;;;4866455;29;20029;-86
2022/04/10 09:06:10;;;;;;;1.67;0.85;;;17.70;99.90;;;;;;4898575;29;20056;-86
2022/04/10 09:08:38;;;;;;;0.75;0.30;;;17.00;99.90;;;;;;4866415;29;20059;-86
2022/04/10 09:11:08;;;;;;;0.47;0.20;;;16.90;99.90;;;;;;4866571;29;20124;-86
2022/04/10 09:13:47;;;;;;;2.10;0.50;;;16.60;99.90;;;;;;4866433;29;20132;-86
2022/04/10 09:16:15;;;;;;;5.03;0.70;;;16.40;99.90;;;;;;4866508;29;20550;-87
2022/04/10 09:18:47;;;;;;;3.70;0.50;;;16.60;99.90;;;;;;4869693;29;20503;-86
2022/04/10 09:21:14;;;;;;;1.77;0.30;;;16.00;99.90;;;;;;4869835;29;20148;-87
2022/04/10 09:23:45;;;;;;;4.18;1.02;;;16.00;99.90;;;;;;4869828;29;20039;-87
2022/04/10 09:26:15;;;;;;;0.63;0.50;;;16.00;99.90;;;;;;4869672;29;20032;-92
2022/04/10 09:28:50;;;;;;;0.88;0.70;;;16.00;99.90;;;;;;4869903;29;20079;-87
2022/04/10 09:31:29;;;;;;;;;;;16.30;99.90;;;;;;4888949;29;20454;-88
2022/04/10 09:34:05;;;;;;;1.38;0.85;;;16.40;99.90;;;;;;4903744;29;19926;-85
2022/04/10 09:36:43;;;;;;;1.15;0.32;;;16.50;99.90;;;;;;4888354;29;20033;-85
2022/04/10 09:39:11;;;;;;;0.30;0.30;;;15.90;99.90;;;;;;4888070;29;20036;-89
2022/04/10 09:41:40;;;;;;;0.50;0.50;;;15.80;99.90;;;;;;4903809;29;20529;-87
2022/04/10 09:44:20;;;;;;;2.22;0.50;;;15.90;99.90;;;;;;4903714;29;20383;-87
2022/04/10 09:47:08;;;;;;;2.58;0.95;;;15.90;99.90;;;;;;4888110;29;20056;-88
2022/04/10 09:49:37;;;;;;;2.00;0.60;;;15.90;99.90;;;;;;4888197;29;20401;-89
2022/04/10 09:52:11;;;;;;;2.85;0.90;;;15.90;99.90;;;;;;4888079;29;20398;-88
2022/04/10 09:54:50;;;;;;;2.33;0.70;;;15.90;99.90;;;;;;4885370;29;20451;-88
2022/04/10 09:57:19;;;;;;;2.00;0.65;;;15.70;99.90;;;;;;4899271;29;20489;-89
2022/04/10 09:59:51;;;;;;;3.70;0.85;;;16.00;99.90;;;;;;4888082;29;20067;-92
2022/04/10 10:02:38;;;;;;;2.75;0.50;;;16.20;99.90;;;;;;4887749;29;20028;-89
2022/04/10 10:05:07;;;;;;;2.58;0.85;;;16.50;99.90;;;;;;4887809;29;20028;-88
2022/04/10 10:07:36;;;;;;;5.05;0.73;;;16.50;99.90;;;;;;4919794;29;20087;-86
2022/04/10 10:10:03;;;;;;;5.32;1.48;;;16.70;99.90;;;;;;4887609;29;20375;-86
2022/04/10 10:12:30;;;;;;;4.43;1.45;;;16.80;99.90;;;;;;4887483;29;20034;-86
2022/04/10 10:14:57;;;;;;;5.78;1.00;;;16.60;99.90;;;;;;4887753;29;20034;-89
2022/04/10 10:17:25;;;;;;;21.42;5.35;;;16.90;99.90;;;;;;4887624;29;20028;-94
2022/04/10 10:19:54;;;;;;;10.05;4.07;;;17.10;99.90;;;;;;4887963;29;20032;-86
2022/04/10 10:22:20;;;;;;;2.97;1.25;;;16.60;99.90;;;;;;4890952;29;20039;-85
2022/04/10 10:25:18;;;;;;;2.75;1.20;;;16.30;99.90;;;;;;4893973;29;20394;-85
2022/04/10 10:27:48;;;;;;;4.25;1.02;;;16.00;99.90;;;;;;4890416;29;20101;-88
2022/04/10 10:31:05;;;;;;;1.73;1.05;;;16.30;99.90;;;;;;4896277;29;20048;-87
2022/04/10 10:33:34;;;;;;;4.50;2.20;;;16.50;99.90;;;;;;4890045;29;20060;-85
2022/04/10 10:36:01;;;;;;;4.18;1.38;;;16.50;99.90;;;;;;4873295;29;20046;-89
2022/04/10 10:38:30;;;;;;;2.47;1.00;;;16.50;99.90;;;;;;4875040;29;20028;-87
2022/04/10 10:41:15;;;;;;;1.55;0.75;;;16.60;99.90;;;;;;4874644;29;20138;-88
2022/04/10 10:43:41;;;;;;;2.13;0.80;;;16.30;99.90;;;;;;4871613;29;20395;-87
2022/04/10 10:46:21;;;;;;;2.53;1.13;;;16.20;99.90;;;;;;4872732;29;20159;-86
2022/04/10 10:48:56;;;;;;;2.20;1.15;;;16.20;99.90;;;;;;4887721;29;20035;-84
2022/04/10 10:51:28;;;;;;;3.55;1.17;;;16.00;99.90;;;;;;4885677;29;20091;-87
2022/04/10 10:53:59;;;;;;;2.58;0.82;;;16.10;99.90;;;;;;4868247;29;20044;-89
2022/04/10 10:56:31;;;;;;;0.80;0.70;;;16.20;99.90;;;;;;4873758;29;20036;-87
2022/04/10 10:59:43;;;;;;;3.70;1.42;;;16.40;99.90;;;;;;4873076;29;20039;-87
2022/04/10 11:02:13;;;;;;;2.55;0.68;;;16.10;99.90;;;;;;4874246;29;20029;-88
2022/04/10 11:04:50;;;;;;;1.83;0.80;;;16.20;99.90;;;;;;4875134;29;20124;-87
2022/04/10 11:07:25;;;;;;;3.28;0.77;;;16.30;99.90;;;;;;4874622;29;20032;-82
2022/04/10 11:10:11;;;;;;;2.85;0.93;;;16.00;99.90;;;;;;4871790;29;20064;-85
2022/04/10 11:12:54;;;;;;;6.78;2.22;;;16.00;99.90;;;;;;4871862;29;20036;-87
2022/04/10 11:15:23;;;;;;;7.45;1.15;;;16.30;99.90;;;;;;4872158;29;20064;-85
2022/04/10 11:17:51;;;;;;;5.63;1.05;;;16.40;99.90;;;;;;4873002;29;20029;-84
2022/04/10 11:29:33;;;;;;;2.13;0.50;;;16.30;99.90;;;;;;4891022;29;20045;-94
2022/04/10 11:32:05;;;;;;;1.30;0.45;;;16.40;99.90;;;;;;4851370;29;20038;-93
2022/04/10 11:44:36;;;;;;;2.42;0.90;;;16.40;99.90;;;;;;5628518;23;20049;-95
2022/04/10 12:10:32;;;;;;;6.50;1.15;;;16.30;99.90;;;;;;5800438;23;20227;-94
2022/04/10 12:19:39;;;;;;;5.35;0.98;;;16.00;99.90;;;;;;5723040;23;20051;-95
2022/04/10 12:22:10;;;;;;;1.08;0.70;;;16.00;99.90;;;;;;4868144;29;20041;-94
2022/04/10 12:24:44;;;;;;;0.47;0.40;;;15.90;99.90;;;;;;4867033;29;20124;-93
2022/04/10 12:27:14;;;;;;;3.55;1.10;;;15.70;99.90;;;;;;4870782;29;20037;-94
2022/04/10 12:29:41;;;;;;;2.17;1.50;;;15.70;99.90;;;;;;4864793;29;20025;-93
2022/04/10 12:32:11;;;;;;;1.15;0.65;;;15.80;99.90;;;;;;4865166;29;20025;-95
2022/04/10 12:34:44;;;;;;;3.72;0.80;;;15.80;99.90;;;;;;4871129;29;20041;-93
2022/04/10 12:37:13;;;;;;;4.55;1.02;;;15.90;99.90;;;;;;4869877;29;20066;-94
2022/04/10 12:39:40;;;;;;;1.75;0.65;;;16.00;99.90;;;;;;4868911;29;20173;-94
2022/04/10 12:42:22;;;;;;;4.57;1.35;;;15.90;99.90;;;;;;4869101;29;20025;-94
2022/04/10 12:45:14;;;;;;;6.65;0.95;;;15.90;99.90;;;;;;4854124;29;20037;-93
2022/04/10 12:47:47;;;;;;;3.75;1.50;;;15.80;99.90;;;;;;4886202;29;20382;-96
2022/04/10 12:50:18;;;;;;;0.95;0.57;;;15.70;99.90;;;;;;4852787;29;20045;-93
2022/04/10 12:52:46;;;;;;;1.58;0.47;;;15.50;99.90;;;;;;4877210;29;20044;-93
2022/04/10 12:55:26;;;;;;;3.42;0.85;;;15.40;99.90;;;;;;4891903;29;20060;-93
2022/04/10 12:58:47;;;;;;;9.13;0.95;;;15.20;99.90;;;;;;4876125;29;20037;-93
2022/04/10 13:01:56;;;;;;;2.42;0.60;;;15.20;99.90;;;;;;4828713;29;20058;-94
2022/04/10 13:09:32;;;;;;;4.78;1.30;;;15.40;99.90;;;;;;4906581;29;20053;-95
2022/04/10 15:44:23;;;;;;;2.45;1.27;;;14.10;99.90;;;;;;4912681;23;20117;-94
2022/04/10 16:06:13;;;;;;;2.50;0.77;;;13.80;99.90;;;;;;5110580;23;20052;-93
2022/04/10 16:08:43;;;;;;;2.40;0.75;;;13.70;99.90;;;;;;4905148;29;20032;-93
2022/04/10 16:11:19;;;;;;;3.70;0.90;;;13.70;99.90;;;;;;4902925;29;20042;-92
2022/04/10 16:13:49;;;;;;;2.70;1.25;;;13.60;99.90;;;;;;4892479;29;20127;-95
2022/04/10 16:16:30;;;;;;;5.95;1.52;;;13.60;99.90;;;;;;4898610;29;20084;-93
2022/04/10 19:37:30;;;;;;;5.72;2.30;;;11.90;99.90;;;;;;6021248;23;20351;31
2022/04/10 20:09:41;;;;;;;10.98;1.35;;;11.30;99.90;;;;;;4932569;23;20063;-95
2022/04/10 20:12:09;;;;;;;6.78;1.90;;;11.30;99.90;;;;;;4909439;29;20056;-94
2022/04/10 20:14:38;;;;;;;9.73;1.50;;;11.30;99.90;;;;;;4906512;29;20035;-94
2022/04/10 20:17:17;;;;;;;7.20;1.90;;;11.30;99.90;;;;;;4906770;29;20123;-93
2022/04/10 20:22:50;;;;;;;8.40;1.70;;;11.30;99.90;;;;;;4902942;29;20211;-88
2022/04/10 20:25:17;;;;;;;10.90;1.92;;;11.30;99.90;;;;;;4864223;29;20506;-92
2022/04/10 20:27:43;;;;;;;7.63;1.70;;;11.30;99.90;;;;;;4867525;29;20463;-90
2022/04/10 20:30:11;;;;;;;8.90;1.63;;;11.20;99.90;;;;;;4870629;29;20037;-89
2022/04/10 20:32:37;;;;;;;11.93;2.45;;;11.20;99.90;;;;;;4869654;29;20025;-89
2022/04/10 20:35:05;;;;;;;4.50;1.05;;;11.20;99.90;;;;;;4867702;29;20048;-84
2022/04/10 20:37:31;;;;;;;3.90;1.35;;;11.20;99.90;;;;;;4867566;29;20021;-85
2022/04/10 20:39:58;;;;;;;4.43;2.17;;;11.20;99.90;;;;;;4882827;29;20144;-86
2022/04/10 20:42:32;;;;;;;5.25;1.35;;;11.20;99.90;;;;;;4882503;29;20451;-86
2022/04/10 20:44:58;;;;;;;6.10;2.65;;;11.10;99.90;;;;;;4883240;29;20056;-85
2022/04/10 20:47:25;;;;;;;13.00;1.67;;;11.10;99.90;;;;;;4883378;29;20543;-85